Time;durP1;ratioP1;P1;durP2;ratioP2;P2;SDS_P1;SDS_P2;PMS_P1;PMS_P2;Temp;Humidity;BMP_temperature;BMP_pressure;BME280_temperature;BME280_humidity;BME280_pressure;Samples;Min_cycle;Max_cycle;Signal;HPM_P1;HPM_P2
2022/07/14 00:02:00;;;;;;;;;;;;;;;21.06;52.19;96849.59;4958566;29;19962;-76
2022/07/14 00:04:26;;;;;;;;;;;;;;;21.04;52.27;96840.25;4958395;29;19958;-76
2022/07/14 00:06:52;;;;;;;;;;;;;;;21.02;52.39;96842.41;4958538;29;19960;-75
2022/07/14 00:09:17;;;;;;;;;;;;;;;21.00;52.56;96837.34;4958254;29;19955;-76
2022/07/14 00:11:43;;;;;;;;;;;;;;;20.98;52.31;96834.16;4958602;29;19971;-75
2022/07/14 00:14:09;;;;;;;;;;;;;;;20.97;52.52;96823.78;4958378;29;19963;-76
2022/07/14 00:16:35;;;;;;;;;;;;;;;20.95;52.78;96833.91;4957749;28;20007;-76
2022/07/14 00:19:01;;;;;;;;;;;;;;;20.93;52.78;96836.84;4957232;29;19962;-76
2022/07/14 00:21:27;;;;;;;;;;;;;;;20.91;52.72;96833.66;4957906;29;19980;-76
2022/07/14 00:23:53;;;;;;;;;;;;;;;20.90;52.55;96839.28;4958095;29;20058;-75
2022/07/14 00:26:19;;;;;;;;;;;;;;;20.88;52.34;96837.66;4958029;29;19962;-75
2022/07/14 00:28:45;;;;;;;;;;;;;;;20.88;52.04;96836.88;4958033;29;19964;-75
2022/07/14 00:31:11;;;;;;;;;;;;;;;20.86;51.72;96831.03;4957733;29;19970;-76
2022/07/14 00:33:38;;;;;;;;;;;;;;;20.83;52.17;96827.06;4958087;29;19966;-75
2022/07/14 00:36:04;;;;;;;;;;;;;;;20.80;52.39;96824.91;4957073;29;19981;-76
2022/07/14 00:38:30;;;;;;;;;;;;;;;20.77;51.82;96814.81;4957784;29;19955;-76
2022/07/14 00:40:56;;;;;;;;;;;;;;;20.75;52.02;96818.84;4957960;29;20324;-76
2022/07/14 00:43:23;;;;;;;;;;;;;;;20.72;51.98;96822.03;4957491;28;19966;-76
2022/07/14 00:45:49;;;;;;;;;;;;;;;20.69;51.83;96823.38;4957916;29;19962;-75
2022/07/14 00:48:17;;;;;;;;;;;;;;;20.66;51.62;96826.56;4957690;29;20382;-75
2022/07/14 00:50:44;;;;;;;;;;;;;;;20.63;51.36;96829.78;4957720;29;19972;-75
2022/07/14 00:53:10;;;;;;;;;;;;;;;20.60;51.45;96825.81;4957503;29;20431;-76
2022/07/14 00:55:37;;;;;;;;;;;;;;;20.58;51.22;96827.13;4957879;29;19959;-76
2022/07/14 00:58:03;;;;;;;;;;;;;;;20.54;51.27;96828.75;4957508;29;19980;-76
2022/07/14 01:00:29;;;;;;;;;;;;;;;20.49;50.97;96824.22;4957664;29;19968;-76
2022/07/14 01:02:54;;;;;;;;;;;;;;;20.46;51.14;96830.88;4957265;29;20417;-76
2022/07/14 01:05:20;;;;;;;;;;;;;;;20.43;51.42;96836.78;4957166;29;20046;-76
2022/07/14 01:07:49;;;;;;;;;;;;;;;20.38;51.62;96831.44;4957774;29;19964;-75
2022/07/14 01:10:15;;;;;;;;;;;;;;;20.35;51.64;96823.19;4957166;29;19971;-75
2022/07/14 01:12:46;;;;;;;;;;;;;;;20.30;52.00;96828.53;4957103;29;19976;-74
2022/07/14 01:15:14;;;;;;;;;;;;;;;20.23;52.35;96829.63;4958045;29;20009;-76
2022/07/14 01:17:40;;;;;;;;;;;;;;;20.18;52.37;96834.16;4957539;29;20332;-74
2022/07/14 01:20:06;;;;;;;;;;;;;;;20.11;52.35;96829.13;4957044;29;19997;-75
2022/07/14 01:22:32;;;;;;;;;;;;;;;20.05;52.47;96831.00;4957113;29;19972;-75
2022/07/14 01:24:58;;;;;;;;;;;;;;;20.00;52.74;96819.56;4957002;29;20009;-76
2022/07/14 01:27:24;;;;;;;;;;;;;;;19.93;52.86;96816.38;4956771;29;19960;-76
2022/07/14 01:29:50;;;;;;;;;;;;;;;19.88;52.86;96817.16;4956380;28;20326;-76
2022/07/14 01:32:16;;;;;;;;;;;;;;;19.82;52.22;96811.06;4956915;29;19988;-76
2022/07/14 01:34:42;;;;;;;;;;;;;;;19.79;52.30;96805.47;4956785;29;20008;-76
2022/07/14 01:37:08;;;;;;;;;;;;;;;19.78;52.00;96806.53;4956739;29;20008;-76
2022/07/14 01:39:34;;;;;;;;;;;;;;;19.76;51.50;96801.50;4956742;29;19964;-76
2022/07/14 01:42:00;;;;;;;;;;;;;;;19.75;51.20;96799.88;4956025;29;20051;-76
2022/07/14 01:44:26;;;;;;;;;;;;;;;19.72;51.09;96795.13;4956745;29;19957;-75
2022/07/14 01:46:51;;;;;;;;;;;;;;;19.70;50.63;96785.75;4955399;29;20031;-74
2022/07/14 01:49:17;;;;;;;;;;;;;;;19.67;50.56;96779.94;4956847;29;20037;-75
2022/07/14 01:51:43;;;;;;;;;;;;;;;19.65;50.22;96773.25;4956731;29;20025;-75
2022/07/14 01:54:09;;;;;;;;;;;;;;;19.62;50.18;96773.81;4956718;29;19953;-76
2022/07/14 01:56:42;;;;;;;;;;;;;;;19.59;50.16;96772.47;4956240;29;20013;-76
2022/07/14 01:59:08;;;;;;;;;;;;;;;19.57;50.01;96773.78;4956488;29;20327;-75
2022/07/14 02:01:40;;;;;;;;;;;;;;;19.54;50.15;96775.13;4956612;29;20341;-76
2022/07/14 02:04:09;;;;;;;;;;;;;;;19.51;49.81;96770.34;4956294;29;19986;-75
2022/07/14 02:06:35;;;;;;;;;;;;;;;19.46;49.97;96765.03;4956383;29;20426;-76
2022/07/14 02:09:00;;;;;;;;;;;;;;;19.39;49.97;96770.63;4956560;29;20010;-75
2022/07/14 02:14:11;;;;;;;;;;;;;;;19.26;50.57;96758.66;4944294;29;19951;-74
2022/07/14 02:16:37;;;;;;;;;;;;;;;19.20;50.51;96770.34;4955961;29;20023;-75
2022/07/14 02:19:03;;;;;;;;;;;;;;;19.15;50.11;96756.25;4956039;28;19955;-75
2022/07/14 02:21:29;;;;;;;;;;;;;;;19.07;50.33;96757.59;4956193;29;19988;-76
2022/07/14 02:23:56;;;;;;;;;;;;;;;19.03;50.11;96764.50;4955995;29;19994;-74
2022/07/14 02:26:23;;;;;;;;;;;;;;;18.99;50.33;96771.41;4955830;29;19950;-76
2022/07/14 02:28:49;;;;;;;;;;;;;;;18.95;50.31;96772.97;4956164;29;19961;-76
2022/07/14 02:31:15;;;;;;;;;;;;;;;18.91;50.35;96764.72;4955984;29;19977;-76
2022/07/14 02:33:41;;;;;;;;;;;;;;;18.84;50.56;96780.94;4956080;29;19959;-74
2022/07/14 02:36:07;;;;;;;;;;;;;;;18.79;50.85;96777.44;4955916;29;19963;-75
2022/07/14 02:38:33;;;;;;;;;;;;;;;18.72;51.04;96782.19;4955939;29;19951;-74
2022/07/14 02:40:59;;;;;;;;;;;;;;;18.66;50.83;96776.06;4953976;28;20059;-75
2022/07/14 02:43:26;;;;;;;;;;;;;;;18.62;51.18;96774.97;4955689;29;19958;-77
2022/07/14 02:45:52;;;;;;;;;;;;;;;18.58;51.06;96776.56;4955559;29;19962;-74
2022/07/14 02:48:18;;;;;;;;;;;;;;;18.56;51.04;96784.81;4955765;29;19963;-75
2022/07/14 02:50:44;;;;;;;;;;;;;;;18.51;51.15;96779.47;4955488;28;20008;-75
2022/07/14 02:53:10;;;;;;;;;;;;;;;18.44;51.80;96782.38;4955573;29;19996;-75
2022/07/14 02:55:36;;;;;;;;;;;;;;;18.39;51.85;96785.00;4955742;29;19967;-75
2022/07/14 02:58:03;;;;;;;;;;;;;;;18.35;52.26;96788.44;4955575;29;19956;-75
2022/07/14 03:00:30;;;;;;;;;;;;;;;18.30;52.55;96793.72;4955481;29;19960;-75
2022/07/14 03:02:56;;;;;;;;;;;;;;;18.23;52.76;96792.09;4955592;29;19960;-75
2022/07/14 03:05:23;;;;;;;;;;;;;;;18.18;52.88;96793.94;4955445;29;19966;-77
2022/07/14 03:07:49;;;;;;;;;;;;;;;18.13;52.95;96789.41;4955382;29;19961;-75
2022/07/14 03:10:15;;;;;;;;;;;;;;;18.09;52.82;96788.31;4955448;29;20331;-75
2022/07/14 03:12:40;;;;;;;;;;;;;;;18.07;52.52;96790.41;4955356;29;19974;-75
2022/07/14 03:15:07;;;;;;;;;;;;;;;18.04;53.10;96793.59;4955749;29;20448;-75
2022/07/14 03:17:33;;;;;;;;;;;;;;;18.01;53.24;96794.09;4955175;29;19969;-76
2022/07/14 03:20:00;;;;;;;;;;;;;;;17.99;53.44;96801.50;4955254;29;19993;-75
2022/07/14 03:22:26;;;;;;;;;;;;;;;17.96;53.21;96796.72;4955196;29;19976;-75
2022/07/14 03:24:52;;;;;;;;;;;;;;;17.92;53.10;96800.97;4955580;29;19981;-75
2022/07/14 03:27:18;;;;;;;;;;;;;;;17.88;53.34;96802.53;4954132;29;19965;-75
2022/07/14 03:29:44;;;;;;;;;;;;;;;17.84;53.62;96810.97;4954147;29;19957;-75
2022/07/14 03:32:10;;;;;;;;;;;;;;;17.81;53.62;96795.56;4955024;29;20057;-75
2022/07/14 03:34:36;;;;;;;;;;;;;;;17.78;54.60;96797.91;4955096;29;19962;-75
2022/07/14 03:37:01;;;;;;;;;;;;;;;17.74;54.76;96800.25;4955366;29;20050;-75
2022/07/14 03:39:27;;;;;;;;;;;;;;;17.73;54.82;96795.22;4955161;29;20006;-75
2022/07/14 03:41:53;;;;;;;;;;;;;;;17.70;54.72;96782.47;4955250;29;19967;-75
2022/07/14 03:44:19;;;;;;;;;;;;;;;17.65;54.68;96781.38;4955162;29;20430;-75
2022/07/14 03:46:45;;;;;;;;;;;;;;;17.63;54.32;96780.03;4955163;29;20008;-75
2022/07/14 03:49:11;;;;;;;;;;;;;;;17.61;54.81;96776.84;4955048;29;20041;-75
2022/07/14 03:51:41;;;;;;;;;;;;;;;17.59;55.01;96777.09;4954968;28;20046;-75
2022/07/14 03:54:06;;;;;;;;;;;;;;;17.56;54.75;96785.56;4958520;29;19962;-75
2022/07/14 03:56:32;;;;;;;;;;;;;;;17.54;54.76;96784.22;4958568;29;19955;-75
2022/07/14 03:58:58;;;;;;;;;;;;;;;17.53;54.98;96774.66;4958619;29;19963;-75
2022/07/14 04:01:24;;;;;;;;;;;;;;;17.51;54.52;96776.75;4958421;29;19967;-75
2022/07/14 04:03:50;;;;;;;;;;;;;;;17.50;54.61;96775.19;4958788;29;19973;-75
2022/07/14 04:06:16;;;;;;;;;;;;;;;17.49;54.63;96779.69;4959051;29;20374;-75
2022/07/14 04:08:44;;;;;;;;;;;;;;;17.49;54.89;96779.69;4958519;29;19963;-75
2022/07/14 04:11:10;;;;;;;;;;;;;;;17.50;55.15;96777.81;4958428;29;20411;-75
2022/07/14 04:13:36;;;;;;;;;;;;;;;17.49;55.28;96776.22;4958541;29;19966;-75
2022/07/14 04:16:02;;;;;;;;;;;;;;;17.48;55.69;96775.41;4958164;29;19960;-75
2022/07/14 04:18:29;;;;;;;;;;;;;;;17.47;56.08;96778.31;4958243;29;19961;-75
2022/07/14 04:20:55;;;;;;;;;;;;;;;17.45;56.16;96778.59;4958035;29;20352;-75
2022/07/14 04:23:21;;;;;;;;;;;;;;;17.47;55.95;96770.34;4958067;29;19978;-75
2022/07/14 04:25:48;;;;;;;;;;;;;;;17.50;56.18;96781.28;4958387;29;19967;-75
2022/07/14 04:28:14;;;;;;;;;;;;;;;17.56;55.84;96772.31;4958227;29;19965;-75
2022/07/14 04:30:41;;;;;;;;;;;;;;;17.66;56.51;96782.19;4957968;29;19963;-75
2022/07/14 04:33:09;;;;;;;;;;;;;;;17.75;56.29;96778.00;4957827;29;19974;-76
2022/07/14 04:35:35;;;;;;;;;;;;;;;17.84;56.26;96778.34;4950107;29;20337;-75
2022/07/14 04:38:01;;;;;;;;;;;;;;;17.94;56.39;96788.22;4957884;28;19955;-75
2022/07/14 04:40:27;;;;;;;;;;;;;;;18.01;55.68;96773.66;4957932;29;19969;-75
2022/07/14 04:42:53;;;;;;;;;;;;;;;18.09;55.50;96775.03;4957844;29;19977;-75
2022/07/14 04:45:20;;;;;;;;;;;;;;;18.14;55.82;96775.09;4957914;29;20385;-74
2022/07/14 04:47:46;;;;;;;;;;;;;;;18.17;55.76;96771.09;4957713;29;19953;-75
2022/07/14 04:52:56;;;;;;;;;;;;;;;18.34;55.75;96769.06;4957503;29;19981;-75
2022/07/14 04:55:22;;;;;;;;;;;;;;;18.39;55.61;96769.06;4957690;29;19962;-75
2022/07/14 04:57:48;;;;;;;;;;;;;;;18.51;55.02;96770.72;4957489;29;19969;-75
2022/07/14 05:00:14;;;;;;;;;;;;;;;18.68;54.85;96776.59;4957315;29;20051;-75
2022/07/14 05:02:40;;;;;;;;;;;;;;;18.82;54.54;96776.94;4957460;28;20042;-75
2022/07/14 05:05:06;;;;;;;;;;;;;;;18.97;52.89;96769.00;4956914;28;19966;-75
2022/07/14 05:07:33;;;;;;;;;;;;;;;19.14;53.08;96762.63;4957392;29;19959;-75
2022/07/14 05:09:59;;;;;;;;;;;;;;;19.36;52.06;96768.50;4957136;29;19960;-75
2022/07/14 05:12:24;;;;;;;;;;;;;;;19.62;51.99;96752.53;4956110;29;19976;-75
2022/07/14 05:14:50;;;;;;;;;;;;;;;19.88;51.44;96755.97;4957327;29;19959;-75
2022/07/14 05:17:18;;;;;;;;;;;;;;;20.15;51.16;96755.63;4957283;29;19964;-76
2022/07/14 05:19:47;;;;;;;;;;;;;;;20.43;50.85;96746.19;4956992;28;19961;-75
2022/07/14 05:22:13;;;;;;;;;;;;;;;20.73;50.09;96746.34;4957208;29;19960;-75
2022/07/14 05:24:39;;;;;;;;;;;;;;;21.00;48.90;96736.03;4957089;29;19968;-76
2022/07/14 05:27:05;;;;;;;;;;;;;;;21.29;48.35;96737.94;4957017;29;20432;-75
2022/07/14 05:29:31;;;;;;;;;;;;;;;21.55;47.82;96741.22;4955729;29;19954;-75
2022/07/14 05:31:57;;;;;;;;;;;;;;;21.81;47.99;96733.75;4957077;29;19982;-75
2022/07/14 05:34:23;;;;;;;;;;;;;;;22.05;47.47;96736.44;4956998;28;19954;-75
2022/07/14 05:36:49;;;;;;;;;;;;;;;22.32;46.28;96734.28;4956876;29;19962;-75
2022/07/14 05:39:15;;;;;;;;;;;;;;;22.58;45.80;96734.75;4956627;29;20371;-75
2022/07/14 05:41:41;;;;;;;;;;;;;;;22.80;45.49;96731.50;4956740;29;19955;-76
2022/07/14 05:44:07;;;;;;;;;;;;;;;23.04;43.27;96724.22;4956776;29;20306;-75
2022/07/14 05:46:33;;;;;;;;;;;;;;;23.19;42.56;96723.19;4956450;29;19959;-76
2022/07/14 05:49:00;;;;;;;;;;;;;;;23.36;42.50;96717.28;4956509;29;20317;-75
2022/07/14 05:51:26;;;;;;;;;;;;;;;23.51;41.09;96713.56;4956965;29;19964;-75
2022/07/14 05:53:51;;;;;;;;;;;;;;;23.67;42.59;96722.13;4955091;29;20393;-75
2022/07/14 05:56:17;;;;;;;;;;;;;;;23.89;42.54;96713.44;4956319;29;20017;-75
2022/07/14 05:58:44;;;;;;;;;;;;;;;24.06;41.45;96713.63;4956562;29;19972;-76
2022/07/14 06:01:10;;;;;;;;;;;;;;;24.27;43.21;96719.41;4956513;29;19965;-75
2022/07/14 06:03:36;;;;;;;;;;;;;;;24.39;41.91;96715.41;4956341;29;19959;-75
2022/07/14 06:06:03;;;;;;;;;;;;;;;24.58;41.78;96708.03;4956302;29;19955;-76
2022/07/14 06:08:28;;;;;;;;;;;;;;;24.73;39.01;96704.22;4956131;29;20403;-75
2022/07/14 06:10:58;;;;;;;;;;;;;;;24.74;38.62;96696.97;4956079;29;19967;-76
2022/07/14 06:13:25;;;;;;;;;;;;;;;24.70;39.11;96702.94;4956464;29;20006;-76
2022/07/14 06:15:51;;;;;;;;;;;;;;;24.62;37.32;96695.63;4956025;28;20334;-75
2022/07/14 06:18:17;;;;;;;;;;;;;;;24.65;38.31;96704.94;4956440;29;20061;-75
2022/07/14 06:20:43;;;;;;;;;;;;;;;24.55;37.74;96718.56;4956376;29;19987;-75
2022/07/14 06:23:09;;;;;;;;;;;;;;;24.40;39.72;96714.28;4955781;29;19974;-75
2022/07/14 06:25:38;;;;;;;;;;;;;;;24.27;39.35;96721.25;4956213;29;20487;-75
2022/07/14 06:28:05;;;;;;;;;;;;;;;24.19;40.12;96722.78;4955855;29;19970;-75
2022/07/14 06:30:31;;;;;;;;;;;;;;;24.08;39.69;96718.69;4956244;29;20407;-75
2022/07/14 06:32:57;;;;;;;;;;;;;;;23.98;40.45;96717.03;4955873;29;19969;-75
2022/07/14 06:35:23;;;;;;;;;;;;;;;24.07;40.30;96711.75;4955976;29;19955;-75
2022/07/14 06:37:51;;;;;;;;;;;;;;;24.21;40.96;96725.94;4955615;29;19979;-75
2022/07/14 06:40:17;;;;;;;;;;;;;;;24.35;41.45;96720.56;4956249;29;19958;-75
2022/07/14 06:42:43;;;;;;;;;;;;;;;24.51;39.77;96704.97;4955724;29;19995;-75
2022/07/14 06:45:09;;;;;;;;;;;;;;;24.60;39.71;96697.00;4955558;29;20019;-75
2022/07/14 06:47:35;;;;;;;;;;;;;;;24.80;41.58;96717.19;4955233;29;20319;-75
2022/07/14 06:50:01;;;;;;;;;;;;;;;24.93;39.52;96692.25;4955946;29;19963;-75
2022/07/14 06:52:27;;;;;;;;;;;;;;;25.09;40.20;96698.03;4954303;29;19981;-75
2022/07/14 06:54:53;;;;;;;;;;;;;;;25.18;38.94;96685.47;4955629;29;20001;-76
2022/07/14 06:57:19;;;;;;;;;;;;;;;25.25;39.78;96688.53;4955619;29;19973;-76
2022/07/14 06:59:45;;;;;;;;;;;;;;;25.21;38.04;96679.50;4955896;29;20028;-76
2022/07/14 07:02:12;;;;;;;;;;;;;;;25.17;38.23;96669.66;4955451;28;19963;-75
2022/07/14 07:04:37;;;;;;;;;;;;;;;25.17;38.76;96686.56;4954459;29;19964;-76
2022/07/14 07:07:03;;;;;;;;;;;;;;;25.07;38.36;96686.78;4955292;29;20021;-75
2022/07/14 07:09:29;;;;;;;;;;;;;;;25.16;39.69;96694.91;4955786;29;19964;-76
2022/07/14 07:11:55;;;;;;;;;;;;;;;25.31;38.25;96681.94;4954417;28;19961;-75
2022/07/14 07:14:21;;;;;;;;;;;;;;;25.61;39.12;96692.19;4955904;29;20010;-75
2022/07/14 07:16:48;;;;;;;;;;;;;;;25.91;37.54;96688.72;4955341;29;19961;-75
2022/07/14 07:19:15;;;;;;;;;;;;;;;26.05;37.67;96691.28;4955027;28;19964;-76
2022/07/14 07:21:41;;;;;;;;;;;;;;;26.25;37.32;96694.50;4956117;29;19993;-76
2022/07/14 07:24:07;;;;;;;;;;;;;;;26.48;36.28;96679.03;4955362;29;19969;-76
2022/07/14 07:26:35;;;;;;;;;;;;;;;26.70;37.97;96686.19;4955800;28;20006;-76
2022/07/14 07:29:01;;;;;;;;;;;;;;;27.02;37.14;96686.81;4959309;29;19974;-76
2022/07/14 07:31:27;;;;;;;;;;;;;;;27.16;35.95;96684.75;4959171;29;19966;-76
2022/07/14 07:33:53;;;;;;;;;;;;;;;27.21;35.29;96679.16;4958854;29;20071;-76
2022/07/14 07:36:20;;;;;;;;;;;;;;;27.16;33.43;96665.88;4959038;29;19962;-76
2022/07/14 07:38:46;;;;;;;;;;;;;;;26.99;35.04;96684.78;4959047;29;19961;-76
2022/07/14 07:41:11;;;;;;;;;;;;;;;26.78;35.77;96679.25;4958851;29;19964;-75
2022/07/14 07:43:37;;;;;;;;;;;;;;;26.78;36.05;96682.72;4957776;29;19965;-76
2022/07/14 07:46:05;;;;;;;;;;;;;;;26.84;37.21;96686.84;4959047;29;19965;-76
2022/07/14 07:48:31;;;;;;;;;;;;;;;26.98;36.04;96672.41;4958565;29;19955;-76
2022/07/14 07:50:58;;;;;;;;;;;;;;;27.10;35.41;96667.16;4958920;29;19966;-76
2022/07/14 07:53:24;;;;;;;;;;;;;;;27.16;35.66;96665.09;4958552;29;19972;-75
2022/07/14 07:55:51;;;;;;;;;;;;;;;27.27;36.68;96661.75;4958841;29;19976;-75
2022/07/14 07:58:18;;;;;;;;;;;;;;;27.49;35.81;96658.06;4958930;29;19956;-75
2022/07/14 08:00:44;;;;;;;;;;;;;;;27.68;34.58;96644.22;4958422;29;19967;-75
2022/07/14 08:03:10;;;;;;;;;;;;;;;27.74;35.11;96651.00;4958684;29;20426;-75
2022/07/14 08:05:36;;;;;;;;;;;;;;;27.92;35.79;96650.94;4958739;29;20053;-76
2022/07/14 08:08:02;;;;;;;;;;;;;;;28.16;36.63;96652.22;4958960;29;19962;-76
2022/07/14 08:10:28;;;;;;;;;;;;;;;28.29;34.61;96638.50;4958521;29;19969;-75
2022/07/14 08:12:54;;;;;;;;;;;;;;;28.40;35.56;96638.13;4958213;29;19980;-76
2022/07/14 08:15:20;;;;;;;;;;;;;;;28.63;34.83;96635.91;4958679;29;19962;-76
2022/07/14 08:17:46;;;;;;;;;;;;;;;28.89;33.44;96624.84;4958158;29;19967;-76
2022/07/14 08:20:12;;;;;;;;;;;;;;;29.10;32.98;96619.44;4958065;29;19987;-76
2022/07/14 08:22:38;;;;;;;;;;;;;;;29.12;33.53;96622.59;4958289;29;19963;-76
2022/07/14 08:25:06;;;;;;;;;;;;;;;29.21;32.70;96617.91;4957616;29;19961;-76
2022/07/14 08:27:32;;;;;;;;;;;;;;;29.25;33.58;96618.81;4957164;29;19961;-76
2022/07/14 08:29:59;;;;;;;;;;;;;;;29.27;33.67;96621.97;4958146;29;19954;-76
2022/07/14 08:32:35;;;;;;;;;;;;;;;29.31;32.54;96605.84;4958125;29;20347;-76
2022/07/14 08:35:02;;;;;;;;;;;;;;;29.30;32.08;96610.47;4950313;29;19969;-76
2022/07/14 08:37:28;;;;;;;;;;;;;;;29.48;31.45;96602.16;4957915;28;19965;-76
2022/07/14 08:39:54;;;;;;;;;;;;;;;29.61;29.97;96590.25;4957113;29;19968;-78
2022/07/14 08:42:21;;;;;;;;;;;;;;;29.65;32.80;96601.97;4957853;29;19963;-76
2022/07/14 08:44:47;;;;;;;;;;;;;;;29.77;32.38;96600.41;4956452;29;19962;-76
2022/07/14 08:47:12;;;;;;;;;;;;;;;29.82;30.71;96592.84;4956713;29;20019;-76
2022/07/14 08:49:38;;;;;;;;;;;;;;;29.88;30.70;96588.78;4957626;29;19972;-76
2022/07/14 08:52:05;;;;;;;;;;;;;;;29.97;30.23;96585.97;4957601;28;19970;-76
2022/07/14 08:54:32;;;;;;;;;;;;;;;30.07;30.21;96585.50;4957623;29;19967;-75
2022/07/14 08:56:58;;;;;;;;;;;;;;;30.16;30.25;96577.25;4957627;29;19958;-76
2022/07/14 08:59:24;;;;;;;;;;;;;;;30.22;30.59;96583.19;4957391;29;20043;-76
2022/07/14 09:01:50;;;;;;;;;;;;;;;30.27;29.51;96566.72;4957641;29;20035;-76
2022/07/14 09:04:17;;;;;;;;;;;;;;;30.29;30.03;96572.63;4957587;29;19955;-76
2022/07/14 09:06:47;;;;;;;;;;;;;;;30.35;27.35;96563.13;4957506;29;19961;-76
2022/07/14 09:09:17;;;;;;;;;;;;;;;30.44;27.77;96565.69;4946387;29;20424;-76
2022/07/14 09:11:50;;;;;;;;;;;;;;;30.63;28.14;96563.13;4957496;29;19968;-77
2022/07/14 09:14:16;;;;;;;;;;;;;;;30.82;27.45;96565.16;4957229;29;19976;-76
2022/07/14 09:16:42;;;;;;;;;;;;;;;30.89;24.86;96565.41;4956447;29;20486;-77
2022/07/14 09:19:09;;;;;;;;;;;;;;;30.98;25.67;96565.22;4957100;28;19967;-77
2022/07/14 09:21:37;;;;;;;;;;;;;;;31.06;25.52;96561.56;4957189;29;19987;-77
2022/07/14 09:24:09;;;;;;;;;;;;;;;31.17;24.22;96561.06;4957293;29;19964;-76
2022/07/14 09:26:45;;;;;;;;;;;;;;;31.26;24.92;96557.00;4956867;29;19953;-76
2022/07/14 09:29:23;;;;;;;;;;;;;;;31.42;24.04;96545.41;4957017;29;19962;-76
2022/07/14 09:31:49;;;;;;;;;;;;;;;31.40;23.55;96545.75;4956999;29;19965;-76
2022/07/14 09:34:24;;;;;;;;;;;;;;;31.32;23.39;96544.00;4956938;29;19975;-77
2022/07/14 09:36:51;;;;;;;;;;;;;;;31.23;24.55;96548.81;4956653;29;19964;-77
2022/07/14 09:39:18;;;;;;;;;;;;;;;31.13;23.54;96539.28;4956729;29;19960;-76
2022/07/14 09:41:50;;;;;;;;;;;;;;;31.13;24.66;96542.78;4956976;29;20346;-77
2022/07/14 09:44:17;;;;;;;;;;;;;;;31.30;21.80;96536.22;4956668;29;19958;-78
2022/07/14 09:46:45;;;;;;;;;;;;;;;31.48;23.52;96544.03;4956474;29;19965;-77
2022/07/14 09:49:12;;;;;;;;;;;;;;;31.54;24.54;96535.25;4956463;28;19956;-78
2022/07/14 09:51:57;;;;;;;;;;;;;;;31.53;23.34;96533.69;4956527;29;20404;-77
2022/07/14 09:54:42;;;;;;;;;;;;;;;31.53;23.06;96536.38;4956500;29;19970;-77
2022/07/14 09:57:18;;;;;;;;;;;;;;;31.54;24.40;96532.56;4956330;29;19960;-77
2022/07/14 09:59:48;;;;;;;;;;;;;;;31.56;22.27;96532.19;4956655;29;19965;-77
2022/07/14 10:02:15;;;;;;;;;;;;;;;31.61;22.73;96526.50;4956795;29;20402;-77
2022/07/14 10:04:43;;;;;;;;;;;;;;;31.63;21.93;96518.81;4956411;29;19965;-77
2022/07/14 10:07:09;;;;;;;;;;;;;;;31.59;22.16;96526.06;4956568;29;19960;-77
2022/07/14 10:09:37;;;;;;;;;;;;;;;31.59;22.51;96523.34;4956396;29;19969;-77
2022/07/14 10:12:04;;;;;;;;;;;;;;;31.59;21.32;96509.81;4955085;29;19963;-78
2022/07/14 10:14:31;;;;;;;;;;;;;;;31.60;21.42;96510.59;4956165;29;19972;-77
2022/07/14 10:16:58;;;;;;;;;;;;;;;31.62;22.12;96514.50;4956150;29;19962;-76
2022/07/14 10:19:25;;;;;;;;;;;;;;;31.73;21.39;96512.84;4956142;29;20324;-77
2022/07/14 10:21:54;;;;;;;;;;;;;;;31.90;22.11;96517.06;4956382;29;19993;-76
2022/07/14 10:24:21;;;;;;;;;;;;;;;32.08;21.46;96514.75;4956052;29;20463;-77
2022/07/14 10:26:47;;;;;;;;;;;;;;;32.21;21.07;96499.09;4956075;29;20327;-77
2022/07/14 10:29:13;;;;;;;;;;;;;;;32.31;21.48;96500.47;4955782;29;20013;-77
2022/07/14 10:31:46;;;;;;;;;;;;;;;32.41;21.87;96499.09;4956206;29;19966;-77
2022/07/14 10:34:31;;;;;;;;;;;;;;;32.53;21.75;96496.22;4955180;29;20000;-77
2022/07/14 10:37:03;;;;;;;;;;;;;;;32.62;20.04;96482.44;4955770;29;19957;-77
2022/07/14 10:39:47;;;;;;;;;;;;;;;32.69;19.32;96477.13;4955749;29;19965;-77
2022/07/14 10:42:26;;;;;;;;;;;;;;;32.81;20.14;96482.38;4949412;29;19955;-77
2022/07/14 10:44:52;;;;;;;;;;;;;;;32.92;20.56;96477.13;4955748;29;20432;-77
2022/07/14 10:47:19;;;;;;;;;;;;;;;33.04;21.10;96481.59;4955727;29;19971;-77
2022/07/14 10:50:01;;;;;;;;;;;;;;;33.14;20.92;96470.16;4955787;29;19963;-77
2022/07/14 10:52:28;;;;;;;;;;;;;;;33.22;20.81;96468.31;4946732;29;20411;-77
2022/07/14 10:55:09;;;;;;;;;;;;;;;33.23;20.08;96462.50;4956092;29;20356;-77
2022/07/14 10:57:35;;;;;;;;;;;;;;;33.27;19.33;96468.00;4955512;29;19964;-77
2022/07/14 11:00:01;;;;;;;;;;;;;;;33.35;20.35;96456.09;4955794;29;19967;-77
2022/07/14 11:02:28;;;;;;;;;;;;;;;33.43;18.81;96449.63;4954825;29;19986;-77
2022/07/14 11:05:12;;;;;;;;;;;;;;;33.49;19.28;96452.78;4955450;29;19973;-75
2022/07/14 11:08:07;;;;;;;;;;;;;;;33.58;19.45;96456.03;4955762;29;20043;-77
2022/07/14 11:10:36;;;;;;;;;;;;;;;33.71;20.86;96457.38;4942859;29;20337;-77
2022/07/14 11:13:04;;;;;;;;;;;;;;;33.80;20.02;96450.88;4955390;29;19978;-78
2022/07/14 11:15:37;;;;;;;;;;;;;;;33.91;20.86;96443.63;4955559;28;20368;-77
2022/07/14 11:18:30;;;;;;;;;;;;;;;34.05;19.88;96424.75;4955363;29;19955;-77
2022/07/14 11:21:16;;;;;;;;;;;;;;;34.06;19.37;96436.41;4953732;28;20454;-77
2022/07/14 11:23:48;;;;;;;;;;;;;;;34.16;20.34;96439.28;4943859;29;20335;-77
2022/07/14 11:26:34;;;;;;;;;;;;;;;34.21;19.18;96430.03;4955371;29;19959;-77
2022/07/14 11:29:02;;;;;;;;;;;;;;;34.31;19.88;96428.53;4955374;29;19972;-77
2022/07/14 11:31:42;;;;;;;;;;;;;;;34.45;20.54;96438.81;4955114;29;19964;-77
2022/07/14 11:37:03;;;;;;;;;;;;;;;34.69;19.79;96421.94;4955306;29;19954;-77
2022/07/14 11:39:34;;;;;;;;;;;;;;;34.77;19.88;96428.22;4955099;29;19960;-77
2022/07/14 11:42:14;;;;;;;;;;;;;;;34.84;20.28;96417.38;4955000;29;20428;-78
2022/07/14 11:44:40;;;;;;;;;;;;;;;34.99;20.20;96417.50;4955354;29;19963;-77
2022/07/14 11:47:06;;;;;;;;;;;;;;;35.07;19.12;96408.19;4955059;29;19999;-77
2022/07/14 11:49:33;;;;;;;;;;;;;;;35.16;19.23;96414.13;4955131;29;19982;-77
2022/07/14 11:52:00;;;;;;;;;;;;;;;35.20;19.42;96403.25;4954839;29;19969;-77
2022/07/14 11:54:26;;;;;;;;;;;;;;;35.14;18.94;96398.16;4954887;29;19969;-77
2022/07/14 11:57:09;;;;;;;;;;;;;;;35.18;19.61;96403.63;4955092;29;19962;-77
2022/07/14 11:59:40;;;;;;;;;;;;;;;35.09;18.69;96393.03;4943683;29;19959;-77
2022/07/14 12:02:09;;;;;;;;;;;;;;;34.99;18.83;96382.06;4954769;29;19967;-77
2022/07/14 12:04:46;;;;;;;;;;;;;;;35.01;19.65;96391.44;4953994;29;19959;-77
2022/07/14 12:07:12;;;;;;;;;;;;;;;34.97;19.50;96390.63;4954795;29;19956;-77
2022/07/14 12:09:38;;;;;;;;;;;;;;;35.02;19.26;96397.66;4954798;29;19962;-78
2022/07/14 12:12:06;;;;;;;;;;;;;;;35.04;18.99;96387.94;4954438;28;19959;-77
2022/07/14 12:14:32;;;;;;;;;;;;;;;35.03;20.16;96394.56;4958417;29;19983;-77
2022/07/14 12:16:58;;;;;;;;;;;;;;;35.08;19.05;96385.25;4958194;29;19961;-77
2022/07/14 12:19:31;;;;;;;;;;;;;;;35.01;19.46;96377.00;4958223;29;19996;-77
2022/07/14 12:22:01;;;;;;;;;;;;;;;35.00;19.43;96391.81;4958322;29;19980;-78
2022/07/14 12:24:27;;;;;;;;;;;;;;;35.06;19.68;96385.59;4959030;29;19971;-77
2022/07/14 12:26:59;;;;;;;;;;;;;;;35.23;19.65;96384.19;4958013;29;20421;-77
2022/07/14 12:29:26;;;;;;;;;;;;;;;35.33;18.75;96378.00;4958248;29;19967;-77
2022/07/14 12:31:52;;;;;;;;;;;;;;;35.34;18.08;96382.31;4957815;29;19971;-77
2022/07/14 12:34:18;;;;;;;;;;;;;;;35.45;18.55;96389.72;4957978;29;20018;-77
2022/07/14 12:36:44;;;;;;;;;;;;;;;35.53;18.61;96378.50;4958284;29;19954;-78
2022/07/14 12:39:10;;;;;;;;;;;;;;;35.64;18.45;96367.66;4957879;29;19960;-77
2022/07/14 12:41:38;;;;;;;;;;;;;;;35.68;18.16;96363.00;4957995;29;19971;-77
2022/07/14 12:44:10;;;;;;;;;;;;;;;35.63;18.05;96352.41;4958030;29;20404;-77
2022/07/14 12:46:36;;;;;;;;;;;;;;;35.53;18.62;96383.16;4957608;29;19959;-77
2022/07/14 12:49:06;;;;;;;;;;;;;;;35.37;18.30;96370.63;4957965;29;20438;-77
2022/07/14 12:51:39;;;;;;;;;;;;;;;35.08;17.78;96371.59;4957812;29;19968;-77
2022/07/14 12:54:05;;;;;;;;;;;;;;;34.93;18.46;96368.00;4957709;29;19982;-77
2022/07/14 12:56:34;;;;;;;;;;;;;;;34.73;17.93;96359.28;4957681;29;20375;-77
2022/07/14 12:59:00;;;;;;;;;;;;;;;34.67;18.96;96363.53;4957599;29;19954;-78